sensor_id;sensor_type;location;lat;lon;timestamp;P1;durP1;ratioP1;P2;durP2;ratioP2
10269;SDS011;70826;50.930;5.334;2023-06-19T00:01:21;5.30;;;4.80;;
10269;SDS011;70826;50.930;5.334;2023-06-19T00:03:51;5.25;;;4.70;;
10269;SDS011;70826;50.930;5.334;2023-06-19T00:06:19;4.93;;;4.43;;
10269;SDS011;70826;50.930;5.334;2023-06-19T00:08:47;7.88;;;4.60;;
10269;SDS011;70826;50.930;5.334;2023-06-19T00:11:13;4.68;;;4.28;;
10269;SDS011;70826;50.930;5.334;2023-06-19T00:13:39;4.80;;;4.32;;
10269;SDS011;70826;50.930;5.334;2023-06-19T00:16:09;4.72;;;4.32;;
10269;SDS011;70826;50.930;5.334;2023-06-19T00:18:36;5.03;;;4.55;;
10269;SDS011;70826;50.930;5.334;2023-06-19T00:21:05;4.88;;;4.47;;
10269;SDS011;70826;50.930;5.334;2023-06-19T00:23:39;4.90;;;4.50;;
10269;SDS011;70826;50.930;5.334;2023-06-19T00:26:05;5.13;;;4.60;;
10269;SDS011;70826;50.930;5.334;2023-06-19T00:28:33;5.55;;;5.05;;
10269;SDS011;70826;50.930;5.334;2023-06-19T00:31:01;4.65;;;4.25;;
10269;SDS011;70826;50.930;5.334;2023-06-19T00:33:31;5.32;;;4.82;;
10269;SDS011;70826;50.930;5.334;2023-06-19T00:35:57;4.72;;;4.32;;
10269;SDS011;70826;50.930;5.334;2023-06-19T00:38:26;4.90;;;4.50;;
10269;SDS011;70826;50.930;5.334;2023-06-19T00:40:54;4.65;;;4.25;;
10269;SDS011;70826;50.930;5.334;2023-06-19T00:43:20;4.47;;;4.07;;
10269;SDS011;70826;50.930;5.334;2023-06-19T00:45:48;5.00;;;4.60;;
10269;SDS011;70826;50.930;5.334;2023-06-19T00:48:14;4.88;;;4.38;;
10269;SDS011;70826;50.930;5.334;2023-06-19T00:50:43;4.88;;;4.47;;
10269;SDS011;70826;50.930;5.334;2023-06-19T00:53:11;4.90;;;4.50;;
10269;SDS011;70826;50.930;5.334;2023-06-19T00:55:38;5.20;;;4.70;;
10269;SDS011;70826;50.930;5.334;2023-06-19T00:58:08;4.90;;;4.47;;
10269;SDS011;70826;50.930;5.334;2023-06-19T01:00:34;4.80;;;4.40;;
10269;SDS011;70826;50.930;5.334;2023-06-19T01:03:00;4.78;;;4.38;;
10269;SDS011;70826;50.930;5.334;2023-06-19T01:05:28;4.90;;;4.50;;
10269;SDS011;70826;50.930;5.334;2023-06-19T01:08:12;4.75;;;4.35;;
10269;SDS011;70826;50.930;5.334;2023-06-19T01:10:56;4.63;;;4.22;;
10269;SDS011;70826;50.930;5.334;2023-06-19T01:16:07;4.90;;;4.50;;
10269;SDS011;70826;50.930;5.334;2023-06-19T01:18:33;4.72;;;4.30;;
10269;SDS011;70826;50.930;5.334;2023-06-19T01:21:12;4.68;;;4.28;;
10269;SDS011;70826;50.930;5.334;2023-06-19T01:23:41;4.82;;;4.43;;
10269;SDS011;70826;50.930;5.334;2023-06-19T01:26:08;4.72;;;4.30;;
10269;SDS011;70826;50.930;5.334;2023-06-19T01:28:39;4.85;;;4.45;;
10269;SDS011;70826;50.930;5.334;2023-06-19T01:31:08;4.47;;;4.00;;
10269;SDS011;70826;50.930;5.334;2023-06-19T01:33:38;4.85;;;4.40;;
10269;SDS011;70826;50.930;5.334;2023-06-19T01:36:08;4.63;;;4.22;;
10269;SDS011;70826;50.930;5.334;2023-06-19T01:38:37;4.45;;;4.05;;
10269;SDS011;70826;50.930;5.334;2023-06-19T01:41:07;4.63;;;4.22;;
10269;SDS011;70826;50.930;5.334;2023-06-19T01:43:42;4.47;;;4.10;;
10269;SDS011;70826;50.930;5.334;2023-06-19T01:46:10;4.70;;;4.30;;
10269;SDS011;70826;50.930;5.334;2023-06-19T01:48:41;4.22;;;3.83;;
10269;SDS011;70826;50.930;5.334;2023-06-19T01:51:06;4.57;;;4.18;;
10269;SDS011;70826;50.930;5.334;2023-06-19T01:53:32;4.50;;;4.10;;
10269;SDS011;70826;50.930;5.334;2023-06-19T01:55:59;4.03;;;3.72;;
10269;SDS011;70826;50.930;5.334;2023-06-19T01:58:27;4.20;;;3.83;;
10269;SDS011;70826;50.930;5.334;2023-06-19T02:00:55;4.53;;;3.90;;
10269;SDS011;70826;50.930;5.334;2023-06-19T02:03:23;4.43;;;4.03;;
10269;SDS011;70826;50.930;5.334;2023-06-19T02:05:51;4.00;;;3.70;;
10269;SDS011;70826;50.930;5.334;2023-06-19T02:08:22;4.38;;;3.97;;
10269;SDS011;70826;50.930;5.334;2023-06-19T02:10:48;4.28;;;3.88;;
10269;SDS011;70826;50.930;5.334;2023-06-19T02:13:13;4.70;;;4.30;;
10269;SDS011;70826;50.930;5.334;2023-06-19T02:15:41;4.28;;;3.97;;
10269;SDS011;70826;50.930;5.334;2023-06-19T02:18:10;4.10;;;3.80;;
10269;SDS011;70826;50.930;5.334;2023-06-19T02:20:38;4.03;;;3.63;;
10269;SDS011;70826;50.930;5.334;2023-06-19T02:23:06;3.67;;;3.38;;
10269;SDS011;70826;50.930;5.334;2023-06-19T02:25:36;4.20;;;3.83;;
10269;SDS011;70826;50.930;5.334;2023-06-19T02:28:02;4.10;;;3.70;;
10269;SDS011;70826;50.930;5.334;2023-06-19T02:30:28;4.10;;;3.70;;
10269;SDS011;70826;50.930;5.334;2023-06-19T02:32:54;4.10;;;3.80;;
10269;SDS011;70826;50.930;5.334;2023-06-19T02:35:22;3.88;;;3.58;;
10269;SDS011;70826;50.930;5.334;2023-06-19T02:37:48;4.30;;;3.90;;
10269;SDS011;70826;50.930;5.334;2023-06-19T02:40:16;4.10;;;3.70;;
10269;SDS011;70826;50.930;5.334;2023-06-19T02:42:42;4.07;;;3.30;;
10269;SDS011;70826;50.930;5.334;2023-06-19T02:45:10;4.13;;;3.80;;
10269;SDS011;70826;50.930;5.334;2023-06-19T02:47:40;3.97;;;3.67;;
10269;SDS011;70826;50.930;5.334;2023-06-19T02:50:13;4.18;;;3.78;;
10269;SDS011;70826;50.930;5.334;2023-06-19T02:52:41;3.78;;;3.47;;
10269;SDS011;70826;50.930;5.334;2023-06-19T02:55:09;3.95;;;3.55;;
10269;SDS011;70826;50.930;5.334;2023-06-19T02:57:35;4.00;;;3.47;;
10269;SDS011;70826;50.930;5.334;2023-06-19T03:00:00;3.70;;;3.40;;
10269;SDS011;70826;50.930;5.334;2023-06-19T03:02:31;3.75;;;3.45;;
10269;SDS011;70826;50.930;5.334;2023-06-19T03:04:57;3.70;;;3.40;;
10269;SDS011;70826;50.930;5.334;2023-06-19T03:07:22;3.95;;;3.65;;
10269;SDS011;70826;50.930;5.334;2023-06-19T03:09:55;4.00;;;3.70;;
10269;SDS011;70826;50.930;5.334;2023-06-19T03:12:24;3.72;;;3.40;;
10269;SDS011;70826;50.930;5.334;2023-06-19T03:14:52;3.92;;;3.63;;
10269;SDS011;70826;50.930;5.334;2023-06-19T03:17:22;3.67;;;3.38;;
10269;SDS011;70826;50.930;5.334;2023-06-19T03:19:50;3.72;;;3.42;;
10269;SDS011;70826;50.930;5.334;2023-06-19T03:22:19;3.90;;;3.60;;
10269;SDS011;70826;50.930;5.334;2023-06-19T03:24:48;3.55;;;3.25;;
10269;SDS011;70826;50.930;5.334;2023-06-19T03:27:13;3.75;;;3.45;;
10269;SDS011;70826;50.930;5.334;2023-06-19T03:29:41;4.32;;;3.55;;
10269;SDS011;70826;50.930;5.334;2023-06-19T03:32:07;3.63;;;3.33;;
10269;SDS011;70826;50.930;5.334;2023-06-19T03:34:38;3.80;;;3.50;;
10269;SDS011;70826;50.930;5.334;2023-06-19T03:37:09;4.05;;;3.47;;
10269;SDS011;70826;50.930;5.334;2023-06-19T03:39:35;3.92;;;3.50;;
10269;SDS011;70826;50.930;5.334;2023-06-19T03:42:05;4.00;;;3.70;;
10269;SDS011;70826;50.930;5.334;2023-06-19T03:44:34;3.60;;;3.30;;
10269;SDS011;70826;50.930;5.334;2023-06-19T03:47:02;3.67;;;3.38;;
10269;SDS011;70826;50.930;5.334;2023-06-19T03:49:28;3.75;;;3.45;;
10269;SDS011;70826;50.930;5.334;2023-06-19T03:51:54;3.58;;;3.28;;
10269;SDS011;70826;50.930;5.334;2023-06-19T03:54:20;3.90;;;3.60;;
10269;SDS011;70826;50.930;5.334;2023-06-19T03:56:48;3.65;;;3.35;;
10269;SDS011;70826;50.930;5.334;2023-06-19T03:59:16;3.67;;;3.38;;
10269;SDS011;70826;50.930;5.334;2023-06-19T04:01:44;4.18;;;3.33;;
10269;SDS011;70826;50.930;5.334;2023-06-19T04:04:13;4.07;;;3.78;;
10269;SDS011;70826;50.930;5.334;2023-06-19T04:06:41;3.90;;;3.60;;
10269;SDS011;70826;50.930;5.334;2023-06-19T04:09:14;3.67;;;3.38;;
10269;SDS011;70826;50.930;5.334;2023-06-19T04:11:40;3.70;;;3.40;;
10269;SDS011;70826;50.930;5.334;2023-06-19T04:14:06;3.50;;;3.20;;
10269;SDS011;70826;50.930;5.334;2023-06-19T04:16:34;4.57;;;3.42;;
10269;SDS011;70826;50.930;5.334;2023-06-19T04:19:04;3.70;;;3.40;;
10269;SDS011;70826;50.930;5.334;2023-06-19T04:21:32;3.63;;;3.33;;
10269;SDS011;70826;50.930;5.334;2023-06-19T04:23:58;3.50;;;3.20;;
10269;SDS011;70826;50.930;5.334;2023-06-19T04:26:36;3.50;;;3.20;;
10269;SDS011;70826;50.930;5.334;2023-06-19T04:29:04;3.65;;;3.35;;
10269;SDS011;70826;50.930;5.334;2023-06-19T04:31:33;3.22;;;2.92;;
10269;SDS011;70826;50.930;5.334;2023-06-19T04:34:08;3.58;;;3.25;;
10269;SDS011;70826;50.930;5.334;2023-06-19T04:36:34;3.63;;;3.33;;
10269;SDS011;70826;50.930;5.334;2023-06-19T04:38:59;3.38;;;3.15;;
10269;SDS011;70826;50.930;5.334;2023-06-19T04:41:30;3.33;;;3.10;;
10269;SDS011;70826;50.930;5.334;2023-06-19T04:43:58;3.65;;;3.35;;
10269;SDS011;70826;50.930;5.334;2023-06-19T04:46:28;3.92;;;3.45;;
10269;SDS011;70826;50.930;5.334;2023-06-19T04:48:54;4.65;;;3.65;;
10269;SDS011;70826;50.930;5.334;2023-06-19T04:51:20;4.05;;;3.72;;
10269;SDS011;70826;50.930;5.334;2023-06-19T04:53:49;4.07;;;3.60;;
10269;SDS011;70826;50.930;5.334;2023-06-19T04:56:15;4.20;;;3.60;;
10269;SDS011;70826;50.930;5.334;2023-06-19T04:58:41;5.50;;;3.40;;
10269;SDS011;70826;50.930;5.334;2023-06-19T05:01:14;3.72;;;3.40;;
10269;SDS011;70826;50.930;5.334;2023-06-19T05:03:42;4.10;;;3.70;;
10269;SDS011;70826;50.930;5.334;2023-06-19T05:06:08;3.67;;;3.33;;
10269;SDS011;70826;50.930;5.334;2023-06-19T05:08:36;4.00;;;3.70;;
10269;SDS011;70826;50.930;5.334;2023-06-19T05:11:05;3.97;;;3.28;;
10269;SDS011;70826;50.930;5.334;2023-06-19T05:13:33;3.60;;;3.35;;
10269;SDS011;70826;50.930;5.334;2023-06-19T05:16:01;3.67;;;3.38;;
10269;SDS011;70826;50.930;5.334;2023-06-19T05:18:27;4.38;;;3.97;;
10269;SDS011;70826;50.930;5.334;2023-06-19T05:20:58;4.90;;;3.90;;
10269;SDS011;70826;50.930;5.334;2023-06-19T05:23:24;4.78;;;4.15;;
10269;SDS011;70826;50.930;5.334;2023-06-19T05:25:52;4.15;;;3.85;;
10269;SDS011;70826;50.930;5.334;2023-06-19T05:28:20;4.10;;;3.80;;
10269;SDS011;70826;50.930;5.334;2023-06-19T05:30:48;4.20;;;3.80;;
10269;SDS011;70826;50.930;5.334;2023-06-19T05:33:16;4.10;;;3.80;;
10269;SDS011;70826;50.930;5.334;2023-06-19T05:35:42;4.70;;;4.30;;
10269;SDS011;70826;50.930;5.334;2023-06-19T05:38:09;3.38;;;3.17;;
10269;SDS011;70826;50.930;5.334;2023-06-19T05:40:40;3.95;;;3.65;;
10269;SDS011;70826;50.930;5.334;2023-06-19T05:43:06;4.15;;;3.85;;
10269;SDS011;70826;50.930;5.334;2023-06-19T05:45:34;4.22;;;3.83;;
10269;SDS011;70826;50.930;5.334;2023-06-19T05:48:00;4.28;;;3.88;;
10269;SDS011;70826;50.930;5.334;2023-06-19T05:50:27;4.25;;;3.85;;
10269;SDS011;70826;50.930;5.334;2023-06-19T05:52:57;4.15;;;3.75;;
10269;SDS011;70826;50.930;5.334;2023-06-19T05:55:23;4.25;;;3.85;;
10269;SDS011;70826;50.930;5.334;2023-06-19T05:57:50;3.88;;;3.58;;
10269;SDS011;70826;50.930;5.334;2023-06-19T06:00:18;5.10;;;3.67;;
10269;SDS011;70826;50.930;5.334;2023-06-19T06:02:47;3.80;;;3.42;;
10269;SDS011;70826;50.930;5.334;2023-06-19T06:05:19;3.65;;;3.38;;
10269;SDS011;70826;50.930;5.334;2023-06-19T06:07:45;3.80;;;3.50;;
10269;SDS011;70826;50.930;5.334;2023-06-19T06:10:11;3.90;;;3.60;;
10269;SDS011;70826;50.930;5.334;2023-06-19T06:12:44;4.10;;;3.80;;
10269;SDS011;70826;50.930;5.334;2023-06-19T06:15:09;3.80;;;3.50;;
10269;SDS011;70826;50.930;5.334;2023-06-19T06:17:38;3.65;;;3.35;;
10269;SDS011;70826;50.930;5.334;2023-06-19T06:20:06;3.88;;;3.58;;
10269;SDS011;70826;50.930;5.334;2023-06-19T06:22:39;3.67;;;3.38;;
10269;SDS011;70826;50.930;5.334;2023-06-19T06:25:08;4.07;;;3.42;;
10269;SDS011;70826;50.930;5.334;2023-06-19T06:27:37;3.75;;;3.45;;
10269;SDS011;70826;50.930;5.334;2023-06-19T06:30:03;3.70;;;3.40;;
10269;SDS011;70826;50.930;5.334;2023-06-19T06:32:36;3.80;;;3.30;;
10269;SDS011;70826;50.930;5.334;2023-06-19T06:35:02;4.35;;;3.28;;
10269;SDS011;70826;50.930;5.334;2023-06-19T06:37:31;4.25;;;3.65;;
10269;SDS011;70826;50.930;5.334;2023-06-19T06:39:57;3.30;;;3.10;;
10269;SDS011;70826;50.930;5.334;2023-06-19T06:42:23;3.20;;;3.00;;
10269;SDS011;70826;50.930;5.334;2023-06-19T06:44:51;4.50;;;3.50;;
10269;SDS011;70826;50.930;5.334;2023-06-19T06:47:16;3.70;;;3.40;;
10269;SDS011;70826;50.930;5.334;2023-06-19T06:49:44;3.13;;;2.92;;
10269;SDS011;70826;50.930;5.334;2023-06-19T06:52:10;3.58;;;3.28;;
10269;SDS011;70826;50.930;5.334;2023-06-19T06:54:36;3.40;;;3.20;;
10269;SDS011;70826;50.930;5.334;2023-06-19T06:57:01;3.38;;;3.13;;
10269;SDS011;70826;50.930;5.334;2023-06-19T06:59:27;4.72;;;3.17;;
10269;SDS011;70826;50.930;5.334;2023-06-19T07:01:54;23.08;;;4.88;;
10269;SDS011;70826;50.930;5.334;2023-06-19T07:04:21;24.67;;;6.45;;
10269;SDS011;70826;50.930;5.334;2023-06-19T07:06:52;18.23;;;7.10;;
10269;SDS011;70826;50.930;5.334;2023-06-19T07:09:21;18.73;;;6.93;;
10269;SDS011;70826;50.930;5.334;2023-06-19T07:11:47;12.82;;;6.28;;
10269;SDS011;70826;50.930;5.334;2023-06-19T07:14:15;8.35;;;5.32;;
10269;SDS011;70826;50.930;5.334;2023-06-19T07:16:44;7.50;;;4.63;;
10269;SDS011;70826;50.930;5.334;2023-06-19T07:19:11;9.95;;;4.40;;
10269;SDS011;70826;50.930;5.334;2023-06-19T07:21:37;8.32;;;4.38;;
10269;SDS011;70826;50.930;5.334;2023-06-19T07:24:04;11.52;;;4.55;;
10269;SDS011;70826;50.930;5.334;2023-06-19T07:26:30;8.82;;;4.43;;
10269;SDS011;70826;50.930;5.334;2023-06-19T07:28:59;10.73;;;4.07;;
10269;SDS011;70826;50.930;5.334;2023-06-19T07:31:25;9.23;;;4.18;;
10269;SDS011;70826;50.930;5.334;2023-06-19T07:33:51;12.27;;;4.43;;
10269;SDS011;70826;50.930;5.334;2023-06-19T07:36:19;9.52;;;4.30;;
10269;SDS011;70826;50.930;5.334;2023-06-19T07:38:45;8.05;;;4.00;;
10269;SDS011;70826;50.930;5.334;2023-06-19T07:41:11;9.98;;;4.00;;
10269;SDS011;70826;50.930;5.334;2023-06-19T07:43:37;10.43;;;3.85;;
10269;SDS011;70826;50.930;5.334;2023-06-19T07:46:06;10.45;;;4.05;;
10269;SDS011;70826;50.930;5.334;2023-06-19T07:48:32;10.00;;;3.50;;
10269;SDS011;70826;50.930;5.334;2023-06-19T07:50:58;9.35;;;4.00;;
10269;SDS011;70826;50.930;5.334;2023-06-19T07:53:24;9.25;;;4.00;;
10269;SDS011;70826;50.930;5.334;2023-06-19T07:55:52;13.07;;;4.35;;
10269;SDS011;70826;50.930;5.334;2023-06-19T07:58:18;11.95;;;4.25;;
10269;SDS011;70826;50.930;5.334;2023-06-19T08:00:44;9.80;;;3.90;;
10269;SDS011;70826;50.930;5.334;2023-06-19T08:03:10;6.78;;;3.80;;
10269;SDS011;70826;50.930;5.334;2023-06-19T08:05:35;8.30;;;3.97;;
10269;SDS011;70826;50.930;5.334;2023-06-19T08:08:01;8.35;;;3.90;;
10269;SDS011;70826;50.930;5.334;2023-06-19T08:10:27;8.23;;;3.85;;
10269;SDS011;70826;50.930;5.334;2023-06-19T08:12:58;7.70;;;4.00;;
10269;SDS011;70826;50.930;5.334;2023-06-19T08:15:26;7.93;;;4.10;;
10269;SDS011;70826;50.930;5.334;2023-06-19T08:17:51;8.52;;;3.95;;
10269;SDS011;70826;50.930;5.334;2023-06-19T08:20:17;9.40;;;4.22;;
10269;SDS011;70826;50.930;5.334;2023-06-19T08:22:44;7.15;;;3.88;;
10269;SDS011;70826;50.930;5.334;2023-06-19T08:25:10;4.78;;;3.40;;
10269;SDS011;70826;50.930;5.334;2023-06-19T08:27:38;4.22;;;3.70;;
10269;SDS011;70826;50.930;5.334;2023-06-19T08:30:04;5.22;;;3.70;;
10269;SDS011;70826;50.930;5.334;2023-06-19T08:32:30;3.80;;;3.40;;
10269;SDS011;70826;50.930;5.334;2023-06-19T08:34:56;5.13;;;3.30;;
10269;SDS011;70826;50.930;5.334;2023-06-19T08:37:23;9.35;;;3.85;;
10269;SDS011;70826;50.930;5.334;2023-06-19T08:39:49;6.72;;;3.90;;
10269;SDS011;70826;50.930;5.334;2023-06-19T08:42:21;7.15;;;3.53;;
10269;SDS011;70826;50.930;5.334;2023-06-19T08:44:49;5.97;;;3.78;;
10269;SDS011;70826;50.930;5.334;2023-06-19T08:47:21;18.80;;;4.28;;
10269;SDS011;70826;50.930;5.334;2023-06-19T08:49:47;17.00;;;4.10;;
10269;SDS011;70826;50.930;5.334;2023-06-19T08:52:17;11.57;;;4.13;;
10269;SDS011;70826;50.930;5.334;2023-06-19T08:54:43;9.07;;;3.80;;
10269;SDS011;70826;50.930;5.334;2023-06-19T08:57:10;7.82;;;3.50;;
10269;SDS011;70826;50.930;5.334;2023-06-19T08:59:39;5.80;;;3.90;;
10269;SDS011;70826;50.930;5.334;2023-06-19T09:02:06;8.82;;;3.72;;
10269;SDS011;70826;50.930;5.334;2023-06-19T09:04:34;9.95;;;4.10;;
10269;SDS011;70826;50.930;5.334;2023-06-19T09:07:06;11.60;;;4.05;;
10269;SDS011;70826;50.930;5.334;2023-06-19T09:09:33;11.32;;;3.88;;
10269;SDS011;70826;50.930;5.334;2023-06-19T09:12:02;10.63;;;4.20;;
10269;SDS011;70826;50.930;5.334;2023-06-19T09:14:37;10.13;;;4.25;;
10269;SDS011;70826;50.930;5.334;2023-06-19T09:17:07;8.30;;;3.80;;
10269;SDS011;70826;50.930;5.334;2023-06-19T09:19:35;6.88;;;3.47;;
10269;SDS011;70826;50.930;5.334;2023-06-19T09:22:07;7.18;;;3.90;;
10269;SDS011;70826;50.930;5.334;2023-06-19T09:24:39;8.77;;;3.65;;
10269;SDS011;70826;50.930;5.334;2023-06-19T09:27:10;5.13;;;3.60;;
10269;SDS011;70826;50.930;5.334;2023-06-19T09:29:42;4.55;;;3.47;;
10269;SDS011;70826;50.930;5.334;2023-06-19T09:32:15;6.68;;;3.63;;
10269;SDS011;70826;50.930;5.334;2023-06-19T09:34:42;6.72;;;3.70;;
10269;SDS011;70826;50.930;5.334;2023-06-19T09:37:10;5.13;;;3.80;;
10269;SDS011;70826;50.930;5.334;2023-06-19T09:39:39;4.97;;;3.78;;
10269;SDS011;70826;50.930;5.334;2023-06-19T09:42:09;5.43;;;3.80;;
10269;SDS011;70826;50.930;5.334;2023-06-19T09:44:39;4.18;;;3.78;;
10269;SDS011;70826;50.930;5.334;2023-06-19T09:47:14;5.10;;;3.75;;
10269;SDS011;70826;50.930;5.334;2023-06-19T09:49:56;5.18;;;3.80;;
10269;SDS011;70826;50.930;5.334;2023-06-19T09:52:28;6.63;;;3.88;;
10269;SDS011;70826;50.930;5.334;2023-06-19T09:54:57;4.47;;;3.60;;
10269;SDS011;70826;50.930;5.334;2023-06-19T09:57:30;3.92;;;3.47;;
10269;SDS011;70826;50.930;5.334;2023-06-19T09:59:58;4.30;;;3.75;;
10269;SDS011;70826;50.930;5.334;2023-06-19T10:02:38;4.07;;;3.58;;
10269;SDS011;70826;50.930;5.334;2023-06-19T10:05:06;3.63;;;3.33;;
10269;SDS011;70826;50.930;5.334;2023-06-19T10:07:37;4.20;;;3.80;;
10269;SDS011;70826;50.930;5.334;2023-06-19T10:10:09;4.22;;;3.83;;
10269;SDS011;70826;50.930;5.334;2023-06-19T10:12:48;4.47;;;3.95;;
10269;SDS011;70826;50.930;5.334;2023-06-19T10:17:47;3.72;;;3.42;;
10269;SDS011;70826;50.930;5.334;2023-06-19T10:20:20;4.13;;;3.72;;
10269;SDS011;70826;50.930;5.334;2023-06-19T10:25:35;4.32;;;3.95;;
10269;SDS011;70826;50.930;5.334;2023-06-19T10:28:22;3.92;;;3.63;;
10269;SDS011;70826;50.930;5.334;2023-06-19T10:31:05;4.00;;;3.70;;
10269;SDS011;70826;50.930;5.334;2023-06-19T10:33:35;4.43;;;4.03;;
10269;SDS011;70826;50.930;5.334;2023-06-19T10:36:17;5.50;;;4.18;;
10269;SDS011;70826;50.930;5.334;2023-06-19T10:38:47;4.10;;;3.80;;
10269;SDS011;70826;50.930;5.334;2023-06-19T10:41:16;4.40;;;4.00;;
10269;SDS011;70826;50.930;5.334;2023-06-19T10:43:52;4.47;;;4.07;;
10269;SDS011;70826;50.930;5.334;2023-06-19T10:46:28;5.00;;;4.50;;
10269;SDS011;70826;50.930;5.334;2023-06-19T10:48:57;4.40;;;4.00;;
10269;SDS011;70826;50.930;5.334;2023-06-19T10:51:29;4.30;;;4.00;;
10269;SDS011;70826;50.930;5.334;2023-06-19T10:54:11;4.38;;;3.97;;
10269;SDS011;70826;50.930;5.334;2023-06-19T10:56:41;4.47;;;4.07;;
10269;SDS011;70826;50.930;5.334;2023-06-19T10:59:13;4.60;;;4.20;;
10269;SDS011;70826;50.930;5.334;2023-06-19T11:01:39;4.40;;;4.00;;
10269;SDS011;70826;50.930;5.334;2023-06-19T11:04:07;4.65;;;4.25;;
10269;SDS011;70826;50.930;5.334;2023-06-19T11:06:45;4.97;;;4.50;;
10269;SDS011;70826;50.930;5.334;2023-06-19T11:09:16;6.35;;;4.32;;
10269;SDS011;70826;50.930;5.334;2023-06-19T11:11:45;14.48;;;4.88;;
10269;SDS011;70826;50.930;5.334;2023-06-19T11:14:16;14.43;;;5.47;;
10269;SDS011;70826;50.930;5.334;2023-06-19T11:16:45;15.13;;;5.20;;
10269;SDS011;70826;50.930;5.334;2023-06-19T11:19:15;18.60;;;5.60;;
10269;SDS011;70826;50.930;5.334;2023-06-19T11:21:49;14.65;;;5.30;;
10269;SDS011;70826;50.930;5.334;2023-06-19T11:24:16;16.27;;;5.43;;
10269;SDS011;70826;50.930;5.334;2023-06-19T11:26:45;13.50;;;5.32;;
10269;SDS011;70826;50.930;5.334;2023-06-19T11:31:50;9.85;;;5.18;;
10269;SDS011;70826;50.930;5.334;2023-06-19T11:34:18;12.80;;;5.38;;
10269;SDS011;70826;50.930;5.334;2023-06-19T11:36:44;12.82;;;5.15;;
10269;SDS011;70826;50.930;5.334;2023-06-19T11:39:15;8.93;;;4.95;;
10269;SDS011;70826;50.930;5.334;2023-06-19T11:41:44;11.93;;;5.25;;
10269;SDS011;70826;50.930;5.334;2023-06-19T11:44:10;9.23;;;4.85;;
10269;SDS011;70826;50.930;5.334;2023-06-19T11:46:36;8.68;;;5.10;;
10269;SDS011;70826;50.930;5.334;2023-06-19T11:51:34;10.43;;;5.50;;
10269;SDS011;70826;50.930;5.334;2023-06-19T11:54:00;7.20;;;5.32;;
10269;SDS011;70826;50.930;5.334;2023-06-19T11:56:26;7.78;;;4.78;;
10269;SDS011;70826;50.930;5.334;2023-06-19T11:58:53;10.73;;;5.15;;
10269;SDS011;70826;50.930;5.334;2023-06-19T12:01:23;10.18;;;4.82;;
10269;SDS011;70826;50.930;5.334;2023-06-19T12:03:52;8.20;;;4.70;;
10269;SDS011;70826;50.930;5.334;2023-06-19T12:06:22;8.98;;;4.97;;
10269;SDS011;70826;50.930;5.334;2023-06-19T12:08:48;8.18;;;5.00;;
10269;SDS011;70826;50.930;5.334;2023-06-19T12:11:16;12.35;;;4.90;;
10269;SDS011;70826;50.930;5.334;2023-06-19T12:13:44;7.93;;;4.72;;
10269;SDS011;70826;50.930;5.334;2023-06-19T12:16:13;10.15;;;4.68;;
10269;SDS011;70826;50.930;5.334;2023-06-19T12:18:39;11.45;;;4.60;;
10269;SDS011;70826;50.930;5.334;2023-06-19T12:21:08;7.43;;;4.95;;
10269;SDS011;70826;50.930;5.334;2023-06-19T12:23:36;7.63;;;4.85;;
10269;SDS011;70826;50.930;5.334;2023-06-19T12:26:07;5.95;;;4.70;;
10269;SDS011;70826;50.930;5.334;2023-06-19T12:28:32;5.75;;;4.57;;
10269;SDS011;70826;50.930;5.334;2023-06-19T12:31:03;7.95;;;5.00;;
10269;SDS011;70826;50.930;5.334;2023-06-19T12:33:30;7.45;;;4.68;;
10269;SDS011;70826;50.930;5.334;2023-06-19T12:35:57;7.15;;;4.47;;
10269;SDS011;70826;50.930;5.334;2023-06-19T12:38:23;6.00;;;4.78;;
10269;SDS011;70826;50.930;5.334;2023-06-19T12:40:51;9.25;;;4.88;;
10269;SDS011;70826;50.930;5.334;2023-06-19T12:43:20;6.32;;;4.60;;
10269;SDS011;70826;50.930;5.334;2023-06-19T12:45:50;7.40;;;4.63;;
10269;SDS011;70826;50.930;5.334;2023-06-19T12:48:19;6.90;;;4.65;;
10269;SDS011;70826;50.930;5.334;2023-06-19T12:50:47;5.30;;;4.80;;
10269;SDS011;70826;50.930;5.334;2023-06-19T12:53:15;5.85;;;4.80;;
10269;SDS011;70826;50.930;5.334;2023-06-19T12:55:41;5.55;;;5.00;;
10269;SDS011;70826;50.930;5.334;2023-06-19T12:58:07;5.80;;;4.72;;
10269;SDS011;70826;50.930;5.334;2023-06-19T13:00:38;6.28;;;4.97;;
10269;SDS011;70826;50.930;5.334;2023-06-19T13:03:04;6.45;;;4.53;;
10269;SDS011;70826;50.930;5.334;2023-06-19T13:05:31;5.25;;;4.75;;
10269;SDS011;70826;50.930;5.334;2023-06-19T13:07:57;4.93;;;4.43;;
10269;SDS011;70826;50.930;5.334;2023-06-19T13:10:25;5.32;;;4.82;;
10269;SDS011;70826;50.930;5.334;2023-06-19T13:12:56;5.70;;;4.65;;
10269;SDS011;70826;50.930;5.334;2023-06-19T13:15:23;5.30;;;4.70;;
10269;SDS011;70826;50.930;5.334;2023-06-19T13:17:49;5.00;;;4.50;;
10269;SDS011;70826;50.930;5.334;2023-06-19T13:20:18;5.70;;;4.75;;
10269;SDS011;70826;50.930;5.334;2023-06-19T13:22:48;4.72;;;4.25;;
10269;SDS011;70826;50.930;5.334;2023-06-19T13:25:17;7.68;;;4.47;;
10269;SDS011;70826;50.930;5.334;2023-06-19T13:27:46;8.90;;;4.68;;
10269;SDS011;70826;50.930;5.334;2023-06-19T13:30:14;7.40;;;4.55;;
10269;SDS011;70826;50.930;5.334;2023-06-19T13:32:41;5.10;;;4.25;;
10269;SDS011;70826;50.930;5.334;2023-06-19T13:35:07;6.18;;;4.72;;
10269;SDS011;70826;50.930;5.334;2023-06-19T13:37:36;7.03;;;4.53;;
10269;SDS011;70826;50.930;5.334;2023-06-19T13:40:04;6.13;;;4.65;;
10269;SDS011;70826;50.930;5.334;2023-06-19T13:42:35;5.40;;;4.65;;
10269;SDS011;70826;50.930;5.334;2023-06-19T13:45:06;4.95;;;4.45;;
10269;SDS011;70826;50.930;5.334;2023-06-19T13:47:35;5.40;;;4.72;;
10269;SDS011;70826;50.930;5.334;2023-06-19T13:50:03;4.75;;;4.35;;
10269;SDS011;70826;50.930;5.334;2023-06-19T13:52:30;5.82;;;4.45;;
10269;SDS011;70826;50.930;5.334;2023-06-19T13:55:01;5.03;;;4.53;;
10269;SDS011;70826;50.930;5.334;2023-06-19T13:57:27;5.43;;;4.55;;
10269;SDS011;70826;50.930;5.334;2023-06-19T14:00:02;6.35;;;4.45;;
10269;SDS011;70826;50.930;5.334;2023-06-19T14:02:28;6.10;;;4.70;;
10269;SDS011;70826;50.930;5.334;2023-06-19T14:04:59;6.57;;;4.50;;
10269;SDS011;70826;50.930;5.334;2023-06-19T14:07:27;5.47;;;4.90;;
10269;SDS011;70826;50.930;5.334;2023-06-19T14:09:52;12.07;;;5.20;;
10269;SDS011;70826;50.930;5.334;2023-06-19T14:12:19;12.48;;;5.53;;
10269;SDS011;70826;50.930;5.334;2023-06-19T14:14:45;11.13;;;4.88;;
10269;SDS011;70826;50.930;5.334;2023-06-19T14:17:10;10.63;;;5.38;;
10269;SDS011;70826;50.930;5.334;2023-06-19T14:19:36;7.25;;;5.05;;
10269;SDS011;70826;50.930;5.334;2023-06-19T14:22:04;6.15;;;5.20;;
10269;SDS011;70826;50.930;5.334;2023-06-19T14:24:32;8.82;;;4.70;;
10269;SDS011;70826;50.930;5.334;2023-06-19T14:26:58;7.95;;;4.90;;
10269;SDS011;70826;50.930;5.334;2023-06-19T14:29:26;4.82;;;4.28;;
10269;SDS011;70826;50.930;5.334;2023-06-19T14:31:52;6.13;;;4.85;;
10269;SDS011;70826;50.930;5.334;2023-06-19T14:34:21;6.25;;;5.00;;
10269;SDS011;70826;50.930;5.334;2023-06-19T14:36:48;7.35;;;4.90;;
10269;SDS011;70826;50.930;5.334;2023-06-19T14:39:17;5.32;;;4.20;;
10269;SDS011;70826;50.930;5.334;2023-06-19T14:41:45;5.85;;;4.30;;
10269;SDS011;70826;50.930;5.334;2023-06-19T14:44:13;5.82;;;4.35;;
10269;SDS011;70826;50.930;5.334;2023-06-19T14:46:42;4.60;;;3.90;;
10269;SDS011;70826;50.930;5.334;2023-06-19T14:49:12;6.80;;;4.18;;
10269;SDS011;70826;50.930;5.334;2023-06-19T14:51:38;6.80;;;4.00;;
10269;SDS011;70826;50.930;5.334;2023-06-19T14:54:06;5.30;;;4.20;;
10269;SDS011;70826;50.930;5.334;2023-06-19T14:56:37;5.93;;;4.00;;
10269;SDS011;70826;50.930;5.334;2023-06-19T14:59:03;4.63;;;4.10;;
10269;SDS011;70826;50.930;5.334;2023-06-19T15:01:32;6.22;;;4.32;;
10269;SDS011;70826;50.930;5.334;2023-06-19T15:03:59;5.57;;;3.95;;
10269;SDS011;70826;50.930;5.334;2023-06-19T15:06:25;10.38;;;4.28;;